Time;durP1;ratioP1;P1;durP2;ratioP2;P2;SDS_P1;SDS_P2;PMS_P1;PMS_P2;Temp;Humidity;BMP_temperature;BMP_pressure;BME280_temperature;BME280_humidity;BME280_pressure;Samples;Min_cycle;Max_cycle;Signal;HPM_P1;HPM_P2
2024/03/01 00:00:59;;;;;;;;;;;;;;;9.81;50.13;99924.84;4970992;27;98064;-72
2024/03/01 00:03:25;;;;;;;;;;;;;;;9.81;50.46;99918.66;4970770;27;99164;-72
2024/03/01 00:05:51;;;;;;;;;;;;;;;9.82;50.40;99914.88;4984274;27;98331;-72
2024/03/01 00:08:19;;;;;;;;;;;;;;;9.82;50.33;99917.56;4988325;27;99393;-72
2024/03/01 00:10:45;;;;;;;;;;;;;;;9.83;50.88;99919.22;5005295;27;98103;-72
2024/03/01 00:13:12;;;;;;;;;;;;;;;9.83;50.25;99906.56;4970795;27;98084;-72
2024/03/01 00:15:39;;;;;;;;;;;;;;;9.86;50.55;99917.84;4969835;27;98581;-72
2024/03/01 00:18:06;;;;;;;;;;;;;;;9.86;51.04;99910.56;4983586;27;98136;-72
2024/03/01 00:20:32;;;;;;;;;;;;;;;9.87;50.42;99900.63;4980090;27;98122;-72
2024/03/01 00:22:59;;;;;;;;;;;;;;;9.86;50.73;99907.88;4970302;27;98087;-72
2024/03/01 00:25:25;;;;;;;;;;;;;;;9.87;50.22;99909.50;4988403;27;98084;-72
2024/03/01 00:27:52;;;;;;;;;;;;;;;9.86;50.59;99899.00;4993902;27;97955;-72
2024/03/01 00:30:21;;;;;;;;;;;;;;;9.87;50.12;99898.72;4969265;27;99880;-72
2024/03/01 00:32:48;;;;;;;;;;;;;;;9.87;50.04;99898.72;4972874;27;98171;-71
2024/03/01 00:35:15;;;;;;;;;;;;;;;9.88;50.46;99900.34;4973509;27;98242;-71
2024/03/01 00:37:42;;;;;;;;;;;;;;;9.88;50.75;99886.06;4984353;27;98258;-71
2024/03/01 00:40:09;;;;;;;;;;;;;;;9.87;50.63;99887.97;4994298;27;98194;-71
2024/03/01 00:42:36;;;;;;;;;;;;;;;9.89;50.10;99887.69;4977235;27;97970;-71
2024/03/01 00:45:04;;;;;;;;;;;;;;;9.89;50.95;99885.78;4978949;27;98317;-72
2024/03/01 00:47:30;;;;;;;;;;;;;;;9.89;50.25;99888.47;4985392;27;98570;-71
2024/03/01 00:49:57;;;;;;;;;;;;;;;9.91;50.70;99888.22;4984859;27;98351;-71
2024/03/01 00:52:23;;;;;;;;;;;;;;;9.90;50.14;99881.19;4982450;27;102528;-71
2024/03/01 00:54:50;;;;;;;;;;;;;;;9.90;50.69;99889.28;4984692;27;97977;-71
2024/03/01 00:57:16;;;;;;;;;;;;;;;9.91;50.30;99889.03;5003851;27;98491;-72
2024/03/01 00:59:43;;;;;;;;;;;;;;;9.90;50.81;99889.28;4964925;27;98207;-71
2024/03/01 01:02:10;;;;;;;;;;;;;;;9.91;50.11;99888.22;4968621;27;98213;-72
2024/03/01 01:04:36;;;;;;;;;;;;;;;9.91;50.01;99877.44;4977503;27;98544;-71
2024/03/01 01:07:03;;;;;;;;;;;;;;;9.92;50.67;99873.66;4961430;27;98236;-71
2024/03/01 01:09:29;;;;;;;;;;;;;;;9.91;50.81;99870.19;4985645;27;98463;-71
2024/03/01 01:11:56;;;;;;;;;;;;;;;9.91;50.65;99872.06;4980107;27;99911;-71
2024/03/01 01:14:23;;;;;;;;;;;;;;;9.91;50.63;99872.88;4966195;27;97986;-71
2024/03/01 01:16:50;;;;;;;;;;;;;;;9.91;51.00;99870.19;4967585;27;98731;-71
2024/03/01 01:19:16;;;;;;;;;;;;;;;9.91;50.37;99864.78;4987353;27;98126;-71
2024/03/01 01:21:43;;;;;;;;;;;;;;;9.91;50.58;99867.47;4983899;27;98146;-72
2024/03/01 01:24:10;;;;;;;;;;;;;;;9.91;50.63;99856.72;4984119;27;98241;-71
2024/03/01 01:26:37;;;;;;;;;;;;;;;9.92;50.46;99868.28;4967827;27;98219;-72
2024/03/01 01:29:04;;;;;;;;;;;;;;;9.90;50.65;99863.16;4985395;27;99463;-71
2024/03/01 01:31:31;;;;;;;;;;;;;;;9.91;50.36;99858.59;4974297;27;98234;-71
2024/03/01 01:33:57;;;;;;;;;;;;;;;9.90;50.67;99857.78;4971411;27;99414;-72
2024/03/01 01:36:23;;;;;;;;;;;;;;;9.90;50.59;99855.09;4971975;27;99646;-72
2024/03/01 01:38:50;;;;;;;;;;;;;;;9.90;50.38;99852.38;5002383;27;98092;-71
2024/03/01 01:41:16;;;;;;;;;;;;;;;9.90;50.34;99855.09;4983276;27;100625;-70
2024/03/01 01:43:43;;;;;;;;;;;;;;;9.89;50.37;99853.47;4988833;27;98016;-71
2024/03/01 01:46:14;;;;;;;;;;;;;;;9.89;50.68;99844.59;4968835;27;98198;-72
2024/03/01 01:48:44;;;;;;;;;;;;;;;9.89;50.53;99850.78;4964329;27;98182;-72
2024/03/01 01:51:13;;;;;;;;;;;;;;;9.89;50.45;99841.91;4974385;27;98411;-71
2024/03/01 01:53:40;;;;;;;;;;;;;;;9.89;50.64;99836.53;4991504;27;97996;-71
2024/03/01 01:56:07;;;;;;;;;;;;;;;9.89;50.44;99840.03;4973677;27;98348;-72
2024/03/01 01:58:34;;;;;;;;;;;;;;;9.87;50.70;99836.81;4983511;27;98298;-72
2024/03/01 02:01:07;;;;;;;;;;;;;;;9.87;50.40;99833.31;4969405;27;98563;-71
2024/03/01 02:03:38;;;;;;;;;;;;;;;9.87;50.46;99825.25;4987795;27;98323;-72
2024/03/01 02:06:05;;;;;;;;;;;;;;;9.86;50.79;99819.03;4989214;27;98858;-71
2024/03/01 02:08:35;;;;;;;;;;;;;;;9.86;50.43;99815.53;4985575;27;98490;-71
2024/03/01 02:11:02;;;;;;;;;;;;;;;9.85;50.38;99814.75;4966674;27;99495;-71
2024/03/01 02:13:30;;;;;;;;;;;;;;;9.86;51.07;99810.16;4970222;27;98039;-71
2024/03/01 02:15:57;;;;;;;;;;;;;;;9.84;50.22;99810.44;4971288;27;98016;-72
2024/03/01 02:18:23;;;;;;;;;;;;;;;9.84;50.54;99808.56;4980613;27;99240;-71
2024/03/01 02:20:49;;;;;;;;;;;;;;;9.82;51.16;99807.22;4966835;27;100345;-72
2024/03/01 02:23:19;;;;;;;;;;;;;;;9.84;50.59;99807.75;5013571;27;98266;-71
2024/03/01 02:25:46;;;;;;;;;;;;;;;9.82;50.51;99799.97;4987110;27;98651;-71
2024/03/01 02:28:12;;;;;;;;;;;;;;;9.81;51.16;99808.31;4990378;27;98627;-71
2024/03/01 02:30:39;;;;;;;;;;;;;;;9.81;50.31;99801.03;4972903;27;98254;-71
2024/03/01 02:33:06;;;;;;;;;;;;;;;9.80;50.59;99794.03;5003442;27;100056;-71
2024/03/01 02:35:32;;;;;;;;;;;;;;;9.80;50.41;99793.25;4986986;27;98109;-71
2024/03/01 02:37:59;;;;;;;;;;;;;;;9.79;50.83;99788.94;4983227;27;98317;-71
2024/03/01 02:40:26;;;;;;;;;;;;;;;9.78;50.71;99779.25;4970082;27;98176;-71
2024/03/01 02:42:53;;;;;;;;;;;;;;;9.78;50.47;99788.13;4969229;27;98345;-71
2024/03/01 02:45:21;;;;;;;;;;;;;;;9.79;50.17;99783.56;4968691;27;98108;-71
2024/03/01 02:47:48;;;;;;;;;;;;;;;9.76;50.73;99781.44;4968722;27;98148;-71
2024/03/01 02:50:15;;;;;;;;;;;;;;;9.77;50.87;99777.63;4987576;27;98088;-71
2024/03/01 02:52:42;;;;;;;;;;;;;;;9.75;50.75;99763.66;5000885;27;98147;-71
2024/03/01 02:55:09;;;;;;;;;;;;;;;9.76;50.70;99767.97;4982623;27;98119;-72
2024/03/01 02:57:36;;;;;;;;;;;;;;;9.75;50.81;99774.44;4984349;27;98386;-71
2024/03/01 03:00:05;;;;;;;;;;;;;;;9.73;50.48;99763.13;5004157;27;98480;-71
2024/03/01 03:02:36;;;;;;;;;;;;;;;9.72;50.59;99765.03;4989649;27;99477;-71
2024/03/01 03:05:03;;;;;;;;;;;;;;;9.73;50.88;99768.50;4969080;27;98198;-71
2024/03/01 03:07:29;;;;;;;;;;;;;;;9.72;50.79;99766.91;5003140;27;98161;-72
2024/03/01 03:09:56;;;;;;;;;;;;;;;9.72;50.67;99769.59;4986044;27;99356;-71
2024/03/01 03:12:23;;;;;;;;;;;;;;;9.71;50.57;99771.50;4988369;27;99212;-71
2024/03/01 03:14:51;;;;;;;;;;;;;;;9.70;50.79;99771.75;4984177;27;98188;-71
2024/03/01 03:17:18;;;;;;;;;;;;;;;9.70;50.85;99774.44;4982320;27;98593;-71
2024/03/01 03:19:45;;;;;;;;;;;;;;;9.68;50.49;99760.47;4978240;27;98373;-71
2024/03/01 03:22:11;;;;;;;;;;;;;;;9.65;50.65;99767.22;4965791;27;98044;-71
2024/03/01 03:24:40;;;;;;;;;;;;;;;9.64;50.75;99764.81;4969134;27;110803;-71
2024/03/01 03:27:07;;;;;;;;;;;;;;;9.59;50.74;99766.44;4990099;27;97862;-71
2024/03/01 03:29:34;;;;;;;;;;;;;;;9.57;51.02;99771.28;4973028;27;98097;-71
2024/03/01 03:32:03;;;;;;;;;;;;;;;9.54;50.55;99769.16;4973487;27;99517;-71
2024/03/01 03:34:30;;;;;;;;;;;;;;;9.51;50.76;99774.28;4984941;27;98484;-71
2024/03/01 03:36:57;;;;;;;;;;;;;;;9.50;50.87;99764.59;4972243;27;98157;-71
2024/03/01 03:39:24;;;;;;;;;;;;;;;9.47;50.90;99765.16;4989147;27;100864;-71
2024/03/01 03:41:51;;;;;;;;;;;;;;;9.45;50.64;99765.44;4968911;27;98089;-71
2024/03/01 03:44:19;;;;;;;;;;;;;;;9.43;50.82;99759.53;4970586;27;99884;-71
2024/03/01 03:46:47;;;;;;;;;;;;;;;9.41;50.62;99758.19;4986815;27;98269;-71
2024/03/01 03:49:13;;;;;;;;;;;;;;;9.38;50.62;99756.84;4970866;27;98348;-71
2024/03/01 03:51:40;;;;;;;;;;;;;;;9.38;50.66;99761.44;4986009;27;98881;-71
2024/03/01 03:54:07;;;;;;;;;;;;;;;9.35;51.28;99762.78;4983274;27;98030;-71
2024/03/01 03:56:35;;;;;;;;;;;;;;;9.34;50.95;99764.66;4972318;27;98152;-71
2024/03/01 03:59:01;;;;;;;;;;;;;;;9.31;50.68;99765.25;4988975;27;98363;-72
2024/03/01 04:01:28;;;;;;;;;;;;;;;9.30;51.25;99768.19;5000307;27;99451;-71
2024/03/01 04:03:55;;;;;;;;;;;;;;;9.28;51.31;99768.47;4998718;27;97738;-71
2024/03/01 04:06:22;;;;;;;;;;;;;;;9.27;51.04;99774.13;5000903;27;98435;-71
2024/03/01 04:08:49;;;;;;;;;;;;;;;9.24;50.96;99770.09;4986969;27;98431;-71
2024/03/01 04:11:15;;;;;;;;;;;;;;;9.24;50.58;99777.38;4980588;27;98308;-71
2024/03/01 04:13:42;;;;;;;;;;;;;;;9.21;51.09;99773.34;4984451;27;98336;-71
2024/03/01 04:16:10;;;;;;;;;;;;;;;9.21;50.62;99777.91;4970993;27;98198;-72
2024/03/01 04:18:38;;;;;;;;;;;;;;;9.19;50.29;99774.69;4967419;27;101756;-71
2024/03/01 04:21:06;;;;;;;;;;;;;;;9.16;50.68;99773.38;4984844;27;99949;-71
2024/03/01 04:23:33;;;;;;;;;;;;;;;9.16;51.13;99772.56;4984486;27;98036;-71
2024/03/01 04:26:00;;;;;;;;;;;;;;;9.15;50.67;99768.25;4971569;27;98342;-71
2024/03/01 04:28:27;;;;;;;;;;;;;;;9.13;50.30;99767.72;4969102;27;100627;-71
2024/03/01 04:30:55;;;;;;;;;;;;;;;9.13;50.87;99767.72;4981416;27;98134;-71
2024/03/01 04:33:23;;;;;;;;;;;;;;;9.10;50.46;99763.69;4983750;27;98296;-72
2024/03/01 04:35:51;;;;;;;;;;;;;;;9.09;50.49;99756.72;5002384;27;97862;-71
2024/03/01 04:38:18;;;;;;;;;;;;;;;9.07;50.77;99753.47;5001339;27;98023;-71
2024/03/01 04:40:45;;;;;;;;;;;;;;;9.06;50.76;99759.94;4965982;27;98218;-71
2024/03/01 04:43:12;;;;;;;;;;;;;;;9.05;50.74;99753.75;4979274;27;100071;-71
2024/03/01 04:45:40;;;;;;;;;;;;;;;9.03;50.33;99747.84;4981885;27;98051;-71
2024/03/01 04:48:08;;;;;;;;;;;;;;;9.02;50.65;99746.25;5004272;27;99089;-71
2024/03/01 04:50:34;;;;;;;;;;;;;;;9.00;51.08;99756.47;5002796;27;98347;-71
2024/03/01 04:53:02;;;;;;;;;;;;;;;8.99;50.75;99746.78;4988202;27;98451;-71
2024/03/01 04:55:28;;;;;;;;;;;;;;;8.97;50.79;99751.66;5007621;27;98213;-71
2024/03/01 04:57:55;;;;;;;;;;;;;;;8.96;50.87;99749.22;4984417;27;98469;-71
2024/03/01 05:00:23;;;;;;;;;;;;;;;8.95;50.81;99752.97;5005676;27;98114;-71
2024/03/01 05:02:51;;;;;;;;;;;;;;;8.94;50.99;99749.50;4986085;27;98208;-71
2024/03/01 05:05:18;;;;;;;;;;;;;;;8.93;50.91;99752.47;4992048;27;98225;-71
2024/03/01 05:07:48;;;;;;;;;;;;;;;8.91;51.04;99752.72;4971939;27;98149;-72
2024/03/01 05:10:21;;;;;;;;;;;;;;;8.90;50.37;99763.75;4971843;28;97832;-71
2024/03/01 05:12:49;;;;;;;;;;;;;;;8.89;50.69;99762.97;4984420;27;98743;-71
2024/03/01 05:15:15;;;;;;;;;;;;;;;8.87;50.75;99758.91;4972918;27;98173;-71
2024/03/01 05:17:43;;;;;;;;;;;;;;;8.86;51.13;99763.50;4981640;27;98293;-71
2024/03/01 05:20:10;;;;;;;;;;;;;;;8.83;51.34;99759.47;4981065;27;98233;-72
2024/03/01 05:22:40;;;;;;;;;;;;;;;8.82;51.10;99754.38;4986276;27;98129;-71
2024/03/01 05:25:14;;;;;;;;;;;;;;;8.80;50.49;99751.13;4984898;27;99531;-71
2024/03/01 05:27:48;;;;;;;;;;;;;;;8.79;50.66;99757.59;4986293;27;98073;-71
2024/03/01 05:30:18;;;;;;;;;;;;;;;8.77;51.11;99762.44;4969464;27;98058;-72
2024/03/01 05:32:46;;;;;;;;;;;;;;;8.76;50.67;99764.34;4979024;27;98250;-71
2024/03/01 05:35:13;;;;;;;;;;;;;;;8.74;51.35;99757.63;4984270;27;98811;-71
2024/03/01 05:37:40;;;;;;;;;;;;;;;8.72;50.50;99754.38;4982602;27;98053;-71
2024/03/01 05:40:16;;;;;;;;;;;;;;;8.70;51.15;99762.72;4985522;27;98927;-71
2024/03/01 05:42:44;;;;;;;;;;;;;;;8.69;50.78;99757.63;4998252;27;99037;-71
2024/03/01 05:45:11;;;;;;;;;;;;;;;8.71;51.25;99764.31;4997806;27;98593;-72
2024/03/01 05:47:38;;;;;;;;;;;;;;;8.76;50.67;99761.66;4999875;27;97984;-72
2024/03/01 05:50:05;;;;;;;;;;;;;;;8.81;50.87;99769.69;4970224;27;100050;-71
2024/03/01 05:52:32;;;;;;;;;;;;;;;8.87;50.92;99775.06;4982018;27;97928;-72
2024/03/01 05:54:59;;;;;;;;;;;;;;;8.93;51.25;99768.59;4980198;27;98517;-72
2024/03/01 05:57:25;;;;;;;;;;;;;;;8.97;50.55;99769.66;4955861;27;98407;-72
2024/03/01 05:59:51;;;;;;;;;;;;;;;9.01;50.72;99770.72;4981021;27;98103;-72
2024/03/01 06:02:18;;;;;;;;;;;;;;;9.05;51.17;99777.97;4989514;27;98192;-71
2024/03/01 06:04:44;;;;;;;;;;;;;;;9.10;50.91;99782.50;4985949;27;98185;-72
2024/03/01 06:07:10;;;;;;;;;;;;;;;9.15;50.93;99781.69;4984431;27;100103;-71
2024/03/01 06:09:36;;;;;;;;;;;;;;;9.19;50.69;99777.38;4982282;27;99490;-71
2024/03/01 06:12:03;;;;;;;;;;;;;;;9.23;50.49;99778.44;4979115;27;116347;-71
2024/03/01 06:14:29;;;;;;;;;;;;;;;9.28;50.31;99787.31;4977262;27;98222;-71
2024/03/01 06:16:56;;;;;;;;;;;;;;;9.33;51.08;99789.16;4996964;27;99497;-71
2024/03/01 06:19:22;;;;;;;;;;;;;;;9.38;50.83;99791.81;4987990;27;99027;-71
2024/03/01 06:21:48;;;;;;;;;;;;;;;9.43;50.79;99788.31;5001092;27;98990;-70
2024/03/01 06:24:14;;;;;;;;;;;;;;;9.49;50.76;99784.53;4981812;27;98364;-71
2024/03/01 06:26:40;;;;;;;;;;;;;;;9.53;50.46;99786.38;4967171;27;98064;-71
2024/03/01 06:29:06;;;;;;;;;;;;;;;9.59;51.15;99787.97;4995436;27;98158;-70
2024/03/01 06:31:32;;;;;;;;;;;;;;;9.67;50.20;99800.03;4973008;27;99873;-71
2024/03/01 06:33:58;;;;;;;;;;;;;;;9.74;51.08;99786.25;4982489;27;116488;-71
2024/03/01 06:36:24;;;;;;;;;;;;;;;9.80;50.54;99798.63;5002369;27;97945;-71
2024/03/01 06:38:51;;;;;;;;;;;;;;;9.87;50.57;99791.06;4987362;27;99294;-70
2024/03/01 06:41:17;;;;;;;;;;;;;;;9.93;50.53;99789.91;4986034;27;99442;-71
2024/03/01 06:43:43;;;;;;;;;;;;;;;9.99;49.91;99790.72;4980007;27;102827;-71
2024/03/01 06:46:09;;;;;;;;;;;;;;;10.07;50.39;99795.50;5000606;27;98154;-71
2024/03/01 06:48:35;;;;;;;;;;;;;;;10.14;50.24;99797.84;4971041;27;97956;-70
2024/03/01 06:51:01;;;;;;;;;;;;;;;10.21;50.19;99792.97;5000339;27;98569;-71
2024/03/01 06:53:28;;;;;;;;;;;;;;;10.29;50.26;99797.78;4985264;27;98307;-71
2024/03/01 06:55:55;;;;;;;;;;;;;;;10.36;50.34;99798.25;4982282;27;98152;-71
2024/03/01 06:58:21;;;;;;;;;;;;;;;10.44;50.01;99800.34;4989252;27;98242;-71
2024/03/01 07:00:47;;;;;;;;;;;;;;;10.53;50.11;99805.94;4970009;27;98420;-71
2024/03/01 07:03:14;;;;;;;;;;;;;;;10.62;50.36;99808.84;4971946;27;98067;-71
2024/03/01 07:05:40;;;;;;;;;;;;;;;10.70;50.10;99802.84;4989827;27;99548;-71
2024/03/01 07:08:07;;;;;;;;;;;;;;;10.80;50.03;99806.22;4970862;27;99934;-71
2024/03/01 07:10:33;;;;;;;;;;;;;;;10.90;49.92;99799.94;4988933;27;99467;-71
2024/03/01 07:12:59;;;;;;;;;;;;;;;11.00;49.58;99799.84;4990460;27;98153;-71
2024/03/01 07:15:29;;;;;;;;;;;;;;;11.11;49.93;99803.22;4986070;27;98383;-71
2024/03/01 07:17:58;;;;;;;;;;;;;;;11.22;49.71;99798.53;4982983;27;98446;-71
2024/03/01 07:20:24;;;;;;;;;;;;;;;11.33;49.76;99808.09;4965536;27;98358;-71
2024/03/01 07:22:50;;;;;;;;;;;;;;;11.43;49.47;99805.28;5002132;27;98179;-71
2024/03/01 07:25:17;;;;;;;;;;;;;;;11.57;49.64;99807.28;4978857;27;98136;-71
2024/03/01 07:27:43;;;;;;;;;;;;;;;11.70;49.57;99806.56;4982460;27;98219;-71
2024/03/01 07:30:10;;;;;;;;;;;;;;;11.82;49.48;99806.94;4980817;27;99564;-71
2024/03/01 07:32:36;;;;;;;;;;;;;;;11.95;49.50;99808.16;4968392;27;99254;-71
2024/03/01 07:35:03;;;;;;;;;;;;;;;12.07;49.49;99807.72;4983453;27;99118;-71
2024/03/01 07:37:30;;;;;;;;;;;;;;;12.23;49.38;99819.91;4995559;27;98363;-71
2024/03/01 07:39:57;;;;;;;;;;;;;;;12.40;49.23;99822.84;4986991;27;98888;-71
2024/03/01 07:42:23;;;;;;;;;;;;;;;12.55;49.21;99819.13;4979744;27;98363;-71
2024/03/01 07:44:50;;;;;;;;;;;;;;;12.74;49.04;99819.88;4985848;27;98807;-71
2024/03/01 07:47:16;;;;;;;;;;;;;;;12.85;48.96;99819.66;4998973;27;98010;-71
2024/03/01 07:49:42;;;;;;;;;;;;;;;13.02;48.81;99809.91;4979463;27;98358;-71
2024/03/01 07:52:08;;;;;;;;;;;;;;;13.24;48.66;99813.84;4981000;27;98366;-71
2024/03/01 07:54:34;;;;;;;;;;;;;;;13.43;48.90;99819.16;4978569;27;98384;-71
2024/03/01 07:57:01;;;;;;;;;;;;;;;13.65;48.77;99813.03;4982065;27;98355;-71
2024/03/01 07:59:27;;;;;;;;;;;;;;;13.89;48.71;99821.69;4984462;27;98149;-71
2024/03/01 08:01:53;;;;;;;;;;;;;;;14.13;48.65;99810.59;4982835;27;107872;-71
2024/03/01 08:04:19;;;;;;;;;;;;;;;14.36;48.46;99816.84;4986700;27;97951;-71
2024/03/01 08:06:46;;;;;;;;;;;;;;;14.58;48.36;99807.94;4971788;27;98411;-71
2024/03/01 08:09:19;;;;;;;;;;;;;;;14.84;48.14;99815.41;4967898;27;113792;-71
2024/03/01 08:11:48;;;;;;;;;;;;;;;15.16;48.10;99822.41;4982932;27;98637;-71
2024/03/01 08:14:24;;;;;;;;;;;;;;;15.47;47.71;99822.38;4979845;27;98483;-71
2024/03/01 08:16:54;;;;;;;;;;;;;;;16.02;47.57;99821.88;4966149;27;98895;-71
2024/03/01 08:19:23;;;;;;;;;;;;;;;16.50;47.11;99825.53;4962503;28;98274;-71
2024/03/01 08:21:49;;;;;;;;;;;;;;;16.74;47.25;99831.31;4987508;27;98119;-71
2024/03/01 08:24:19;;;;;;;;;;;;;;;16.78;47.43;99825.97;4968185;28;99975;-71
2024/03/01 08:26:45;;;;;;;;;;;;;;;16.73;47.61;99839.75;4962291;27;98066;-71
2024/03/01 08:29:11;;;;;;;;;;;;;;;16.65;47.94;99835.91;4958791;27;97937;-71
2024/03/01 08:31:37;;;;;;;;;;;;;;;16.55;48.20;99836.25;4974114;27;100277;-71
2024/03/01 08:34:19;;;;;;;;;;;;;;;16.50;48.34;99839.94;4968537;27;99895;-71
2024/03/01 08:36:45;;;;;;;;;;;;;;;16.46;48.36;99847.13;4987118;27;98298;-71
2024/03/01 08:39:24;;;;;;;;;;;;;;;16.39;48.38;99841.41;4967519;27;98049;-71
2024/03/01 08:41:54;;;;;;;;;;;;;;;16.45;48.51;99834.66;4965339;27;98258;-71
2024/03/01 08:44:23;;;;;;;;;;;;;;;16.73;48.22;99829.69;4970417;27;98559;-71
2024/03/01 08:46:49;;;;;;;;;;;;;;;16.85;48.46;99837.97;4971446;27;98571;-71
2024/03/01 08:49:45;;;;;;;;;;;;;;;16.92;48.14;99848.38;4955062;27;99793;-71
2024/03/01 08:52:38;;;;;;;;;;;;;;;17.52;47.48;99844.59;4930726;27;98333;-71
2024/03/01 08:55:16;;;;;;;;;;;;;;;17.89;47.36;99859.34;4983292;27;98313;-71
2024/03/01 08:57:42;;;;;;;;;;;;;;;17.93;47.71;99847.78;4987540;27;100315;-71
2024/03/01 09:00:26;;;;;;;;;;;;;;;17.91;47.75;99846.19;4972189;27;99884;-71
2024/03/01 09:02:53;;;;;;;;;;;;;;;17.73;48.19;99839.22;4987473;27;98250;-71
2024/03/01 09:05:21;;;;;;;;;;;;;;;17.59;48.25;99834.00;4968263;27;98464;-71
2024/03/01 09:07:48;;;;;;;;;;;;;;;17.59;48.44;99844.91;4958768;27;98582;-71
2024/03/01 09:10:18;;;;;;;;;;;;;;;17.54;48.43;99847.03;4958111;27;98127;-71
2024/03/01 09:12:47;;;;;;;;;;;;;;;17.55;48.32;99843.97;4975862;27;98148;-71
2024/03/01 09:15:15;;;;;;;;;;;;;;;17.70;48.28;99845.31;4955080;27;98353;-71
2024/03/01 09:17:41;;;;;;;;;;;;;;;17.87;48.13;99845.25;4969547;27;98056;-71
2024/03/01 09:20:36;;;;;;;;;;;;;;;17.88;48.18;99848.75;4967190;27;98451;-71
2024/03/01 09:23:05;;;;;;;;;;;;;;;17.81;48.57;99859.41;4986083;27;99591;-71
2024/03/01 09:25:49;;;;;;;;;;;;;;;17.75;48.51;99863.44;5014686;27;98551;-71
2024/03/01 09:28:16;;;;;;;;;;;;;;;17.71;48.50;99846.91;5014540;27;101222;-71
2024/03/01 09:30:51;;;;;;;;;;;;;;;17.71;48.58;99838.75;4981139;27;98028;-71
2024/03/01 09:33:18;;;;;;;;;;;;;;;17.66;48.70;99852.56;5002555;27;98497;-71
2024/03/01 09:35:45;;;;;;;;;;;;;;;17.64;48.63;99858.34;4984506;27;98408;-71
2024/03/01 09:38:12;;;;;;;;;;;;;;;17.64;48.80;99846.63;4978384;27;98190;-71
2024/03/01 09:40:50;;;;;;;;;;;;;;;17.70;48.66;99844.53;4980170;27;99338;-71
2024/03/01 09:43:38;;;;;;;;;;;;;;;17.78;48.58;99843.72;4995995;27;98301;-71
2024/03/01 09:46:10;;;;;;;;;;;;;;;17.87;48.42;99828.09;5001072;27;98096;-71
2024/03/01 09:48:51;;;;;;;;;;;;;;;18.00;48.40;99839.88;4984205;27;100259;-71
2024/03/01 09:51:22;;;;;;;;;;;;;;;18.14;48.36;99841.19;4996000;27;98107;-71
2024/03/01 09:53:54;;;;;;;;;;;;;;;18.23;48.28;99827.50;5003971;27;98017;-71
2024/03/01 09:56:36;;;;;;;;;;;;;;;18.26;48.31;99828.75;5001270;27;98250;-71
2024/03/01 09:59:27;;;;;;;;;;;;;;;18.29;48.27;99831.63;5012948;27;98540;-71
2024/03/01 10:01:57;;;;;;;;;;;;;;;18.26;48.13;99826.81;4998165;27;98316;-71
2024/03/01 10:04:35;;;;;;;;;;;;;;;18.28;48.49;99830.03;5001338;27;98142;-71
2024/03/01 10:07:04;;;;;;;;;;;;;;;18.31;48.31;99825.81;4983968;27;99595;-71
2024/03/01 10:09:54;;;;;;;;;;;;;;;18.32;48.55;99827.44;4995487;27;98671;-71
2024/03/01 10:12:42;;;;;;;;;;;;;;;18.35;48.46;99826.75;4983321;27;97914;-71
2024/03/01 10:15:39;;;;;;;;;;;;;;;18.38;48.50;99826.88;4982240;27;98361;-70
2024/03/01 10:18:14;;;;;;;;;;;;;;;18.41;48.43;99817.25;4957031;27;98443;-71
2024/03/01 10:20:43;;;;;;;;;;;;;;;18.41;48.64;99825.44;4999411;27;98220;-71
2024/03/01 10:23:48;;;;;;;;;;;;;;;18.46;48.74;99829.88;4993576;27;97954;-71
2024/03/01 10:26:28;;;;;;;;;;;;;;;18.52;48.42;99825.81;4916841;28;98717;-71
2024/03/01 10:29:29;;;;;;;;;;;;;;;18.72;48.24;99825.00;4943063;27;98043;-71
2024/03/01 10:32:10;;;;;;;;;;;;;;;18.59;48.49;99820.63;4982003;27;98028;-71
2024/03/01 10:35:05;;;;;;;;;;;;;;;18.65;48.60;99819.25;4994673;27;97940;-71
2024/03/01 10:38:10;;;;;;;;;;;;;;;18.62;48.59;99822.66;4979618;27;98365;-71
2024/03/01 10:40:53;;;;;;;;;;;;;;;18.78;48.27;99817.38;4962772;27;98889;-71
2024/03/01 10:43:38;;;;;;;;;;;;;;;18.88;48.25;99823.22;4981079;27;98481;-71
2024/03/01 10:46:15;;;;;;;;;;;;;;;18.84;48.52;99822.28;4962713;28;98282;-71
2024/03/01 10:49:05;;;;;;;;;;;;;;;18.81;48.50;99833.09;4980994;27;104345;-71
2024/03/01 10:51:35;;;;;;;;;;;;;;;18.84;48.54;99832.41;4994544;27;98407;-71
2024/03/01 10:54:04;;;;;;;;;;;;;;;18.80;48.68;99826.03;4959668;27;99153;-70
2024/03/01 10:56:31;;;;;;;;;;;;;;;18.75;48.69;99813.41;4978099;27;98800;-71
2024/03/01 10:59:05;;;;;;;;;;;;;;;18.73;48.78;99821.13;4953399;27;98022;-71
2024/03/01 11:01:36;;;;;;;;;;;;;;;18.71;48.97;99817.16;4941218;27;100116;-71
2024/03/01 11:04:38;;;;;;;;;;;;;;;18.65;48.69;99830.16;4994216;27;98628;-71
2024/03/01 11:07:34;;;;;;;;;;;;;;;18.59;48.97;99824.13;4979050;27;98196;-71
2024/03/01 11:10:16;;;;;;;;;;;;;;;18.53;48.84;99816.50;4947934;27;99326;-72
2024/03/01 11:12:58;;;;;;;;;;;;;;;18.48;49.04;99817.50;4973428;27;98380;-71
2024/03/01 11:15:26;;;;;;;;;;;;;;;18.42;49.27;99826.22;4944004;27;98464;-71
2024/03/01 11:17:53;;;;;;;;;;;;;;;18.36;49.40;99836.56;4974869;27;97860;-71
2024/03/01 11:20:25;;;;;;;;;;;;;;;18.30;49.05;99827.75;4999065;27;98956;-69
2024/03/01 11:22:59;;;;;;;;;;;;;;;18.27;49.20;99827.63;4968467;27;98223;-69
2024/03/01 11:25:28;;;;;;;;;;;;;;;18.22;49.37;99825.09;4965046;27;99613;-69
2024/03/01 11:27:59;;;;;;;;;;;;;;;18.18;49.50;99818.72;4980928;27;98030;-69
2024/03/01 11:30:28;;;;;;;;;;;;;;;18.15;49.29;99799.16;4983575;27;98577;-71
2024/03/01 11:33:00;;;;;;;;;;;;;;;18.13;49.39;99808.81;4967941;27;98268;-71
2024/03/01 11:35:43;;;;;;;;;;;;;;;18.12;49.46;99809.97;4971487;27;98343;-71
2024/03/01 11:38:24;;;;;;;;;;;;;;;18.10;49.65;99799.38;4987546;27;97884;-71
2024/03/01 11:40:56;;;;;;;;;;;;;;;18.08;49.25;99809.03;4994436;27;98995;-71
2024/03/01 11:43:34;;;;;;;;;;;;;;;18.06;49.44;99809.34;5000452;27;101167;-71
2024/03/01 11:46:13;;;;;;;;;;;;;;;18.04;49.35;99821.72;5013794;27;99166;-71
2024/03/01 11:48:54;;;;;;;;;;;;;;;18.02;49.53;99823.97;4984620;27;98476;-71
2024/03/01 11:51:41;;;;;;;;;;;;;;;18.02;49.43;99822.06;4998560;27;98139;-71
2024/03/01 11:54:45;;;;;;;;;;;;;;;18.02;49.46;99819.31;4982158;27;98147;-71
2024/03/01 11:57:23;;;;;;;;;;;;;;;18.02;49.45;99824.78;4999203;27;98564;-71
2024/03/01 12:00:28;;;;;;;;;;;;;;;18.00;49.57;99824.31;5000435;27;98523;-71
2024/03/01 12:03:22;;;;;;;;;;;;;;;17.98;49.46;99825.78;4927326;27;98198;-71
2024/03/01 12:06:03;;;;;;;;;;;;;;;17.94;49.70;99822.91;4971368;27;100388;-71
2024/03/01 12:08:44;;;;;;;;;;;;;;;17.87;49.53;99839.78;5003367;27;97955;-71
2024/03/01 12:11:20;;;;;;;;;;;;;;;17.80;49.55;99841.44;4968894;27;100149;-71
2024/03/01 12:13:55;;;;;;;;;;;;;;;17.73;49.69;99839.22;4999152;27;98079;-71
2024/03/01 12:16:35;;;;;;;;;;;;;;;17.70;49.72;99839.09;4968535;27;99432;-71
2024/03/01 12:19:23;;;;;;;;;;;;;;;17.67;49.55;99829.63;5015370;27;98288;-71
2024/03/01 12:22:13;;;;;;;;;;;;;;;17.65;49.63;99826.44;5000049;27;98423;-71
2024/03/01 12:24:40;;;;;;;;;;;;;;;17.63;49.19;99823.25;4986779;27;98348;-71
2024/03/01 12:27:29;;;;;;;;;;;;;;;17.61;49.64;99823.59;4984983;27;98821;-71
2024/03/01 12:30:16;;;;;;;;;;;;;;;17.63;49.70;99817.78;4987296;27;98232;-71
2024/03/01 12:33:08;;;;;;;;;;;;;;;17.62;49.73;99814.28;5006723;27;98054;-71
2024/03/01 12:35:46;;;;;;;;;;;;;;;17.64;49.53;99809.31;5005707;27;97942;-71
2024/03/01 12:38:17;;;;;;;;;;;;;;;17.67;49.66;99807.81;4984519;27;98410;-71
2024/03/01 12:41:10;;;;;;;;;;;;;;;17.69;49.66;99813.75;4997550;27;98539;-71
2024/03/01 12:43:36;;;;;;;;;;;;;;;17.69;49.46;99812.97;5005445;27;97947;-71
2024/03/01 12:46:03;;;;;;;;;;;;;;;17.71;49.59;99819.66;4993323;27;100119;-71
2024/03/01 12:48:51;;;;;;;;;;;;;;;17.75;49.43;99809.72;5002515;27;98088;-71
2024/03/01 12:51:26;;;;;;;;;;;;;;;17.80;49.38;99815.00;4997563;27;97832;-71
2024/03/01 12:54:04;;;;;;;;;;;;;;;17.82;49.43;99811.94;4988688;27;98096;-71
2024/03/01 12:56:32;;;;;;;;;;;;;;;17.83;49.60;99803.41;4968921;27;98037;-71
2024/03/01 12:59:24;;;;;;;;;;;;;;;17.82;49.46;99793.66;4998501;27;98240;-71
2024/03/01 13:02:09;;;;;;;;;;;;;;;17.85;49.42;99800.38;4993878;27;98377;-71
2024/03/01 13:05:04;;;;;;;;;;;;;;;17.83;49.74;99802.63;4996025;27;98935;-71
2024/03/01 13:07:31;;;;;;;;;;;;;;;17.81;49.67;99802.16;4982036;27;99305;-71
2024/03/01 13:09:59;;;;;;;;;;;;;;;17.77;49.77;99793.84;4980255;27;99733;-71